Time;durP1;ratioP1;P1;durP2;ratioP2;P2;SDS_P1;SDS_P2;PMS_P1;PMS_P2;Temp;Humidity;BMP_temperature;BMP_pressure;BME280_temperature;BME280_humidity;BME280_pressure;Samples;Min_cycle;Max_cycle;Signal;HPM_P1;HPM_P2
2022/10/20 00:00:19;;;;;;;0.67;0.67;;;8.80;99.90;;;;;;5071734;28;20198;-76
2022/10/20 00:02:45;;;;;;;0.80;0.80;;;8.70;99.90;;;;;;5071707;28;20186;-77
2022/10/20 00:05:11;;;;;;;0.63;0.63;;;8.70;99.90;;;;;;5071782;28;20206;-76
2022/10/20 00:07:36;;;;;;;0.70;0.70;;;8.60;99.90;;;;;;5071530;28;20856;-75
2022/10/20 00:10:02;;;;;;;0.60;0.60;;;8.60;99.90;;;;;;5071297;28;20178;-76
2022/10/20 00:12:27;;;;;;;0.67;0.67;;;8.60;99.90;;;;;;5071383;28;20536;-76
2022/10/20 00:14:53;;;;;;;0.70;0.70;;;8.60;99.90;;;;;;5071655;28;20223;-76
2022/10/20 00:17:18;;;;;;;0.63;0.63;;;8.50;99.90;;;;;;5073096;28;20180;-76
2022/10/20 00:19:47;;;;;;;0.60;0.60;;;8.50;99.90;;;;;;5073798;28;20170;-76
2022/10/20 00:22:12;;;;;;;0.67;0.67;;;8.50;99.90;;;;;;5074339;28;20183;-76
2022/10/20 00:24:38;;;;;;;0.70;0.70;;;8.50;99.90;;;;;;5074014;28;20197;-75
2022/10/20 00:27:03;;;;;;;0.70;0.70;;;8.50;99.90;;;;;;5073861;28;20178;-75
2022/10/20 00:29:29;;;;;;;0.73;0.73;;;8.60;99.90;;;;;;5072026;28;20174;-76
2022/10/20 00:31:54;;;;;;;0.70;0.70;;;8.60;99.90;;;;;;5071429;28;20198;-76
2022/10/20 00:34:20;;;;;;;0.70;0.70;;;8.50;99.90;;;;;;5071862;28;20227;-76
2022/10/20 00:36:45;;;;;;;0.70;0.70;;;8.40;99.90;;;;;;5071268;28;20182;-76
2022/10/20 00:39:11;;;;;;;0.70;0.70;;;8.40;99.90;;;;;;5071396;28;20179;-76
2022/10/20 00:41:36;;;;;;;0.50;0.50;;;8.40;99.90;;;;;;5070658;28;20333;-74
2022/10/20 00:44:40;;;;;;;0.80;0.80;;;8.30;99.90;;;;;;5071207;28;20189;-77
2022/10/20 00:47:13;;;;;;;0.60;0.60;;;8.30;99.90;;;;;;5071517;28;20193;-76
2022/10/20 00:49:39;;;;;;;0.80;0.80;;;8.30;99.90;;;;;;5071002;28;20268;-76
2022/10/20 00:52:04;;;;;;;0.70;0.70;;;8.40;99.90;;;;;;5071130;28;20229;-75
2022/10/20 00:54:30;;;;;;;0.60;0.60;;;8.40;99.90;;;;;;5071548;28;20225;-76
2022/10/20 00:56:57;;;;;;;0.70;0.70;;;8.40;99.90;;;;;;5071054;28;20189;-76
2022/10/20 00:59:27;;;;;;;0.60;0.60;;;8.50;99.90;;;;;;5071000;28;20273;-77
2022/10/20 01:01:54;;;;;;;0.60;0.60;;;8.60;99.90;;;;;;5071066;28;20276;-77
2022/10/20 01:04:20;;;;;;;0.70;0.70;;;8.80;99.90;;;;;;5071297;28;20178;-76
2022/10/20 01:06:46;;;;;;;0.60;0.60;;;8.90;99.90;;;;;;5070889;28;20355;-77
2022/10/20 01:09:11;;;;;;;0.70;0.70;;;8.80;99.90;;;;;;5071245;28;20206;-77
2022/10/20 01:12:14;;;;;;;0.60;0.60;;;8.80;99.90;;;;;;5070768;28;20244;-76
2022/10/20 01:15:01;;;;;;;0.70;0.70;;;8.60;99.90;;;;;;5070978;28;20226;-76
2022/10/20 01:17:59;;;;;;;0.60;0.60;;;8.50;99.90;;;;;;5071220;28;20189;-76
2022/10/20 01:20:44;;;;;;;0.60;0.60;;;8.50;99.90;;;;;;5070717;28;20208;-75
2022/10/20 01:23:43;;;;;;;0.60;0.60;;;8.60;99.90;;;;;;5070754;28;20288;-77
2022/10/20 01:26:18;;;;;;;0.60;0.60;;;8.80;99.90;;;;;;5071181;28;20289;-75
2022/10/20 01:28:56;;;;;;;0.60;0.60;;;8.50;99.90;;;;;;5071079;28;20198;-77
2022/10/20 01:31:51;;;;;;;0.70;0.70;;;8.40;99.90;;;;;;5072326;28;20213;-76
2022/10/20 01:34:31;;;;;;;0.60;0.60;;;8.40;99.90;;;;;;5076498;28;20177;-76
2022/10/20 01:37:14;;;;;;;0.67;0.67;;;8.30;99.90;;;;;;5076186;28;20261;-76
2022/10/20 01:39:53;;;;;;;0.60;0.60;;;8.30;99.90;;;;;;5075295;28;20694;-77
2022/10/20 01:42:23;;;;;;;0.70;0.70;;;8.20;99.90;;;;;;5074238;28;20166;-77
2022/10/20 01:44:52;;;;;;;0.80;0.80;;;8.20;99.90;;;;;;5074424;28;22102;-76
2022/10/20 01:47:21;;;;;;;0.60;0.60;;;8.20;99.90;;;;;;5074156;28;20261;-76
2022/10/20 01:49:48;;;;;;;0.60;0.60;;;8.40;99.90;;;;;;5073573;28;20258;-77
2022/10/20 01:52:14;;;;;;;0.57;0.57;;;8.30;99.90;;;;;;5074234;28;20171;-76
2022/10/20 01:54:40;;;;;;;0.67;0.67;;;8.30;99.90;;;;;;5074102;28;20257;-76
2022/10/20 01:57:36;;;;;;;0.50;0.50;;;8.20;99.90;;;;;;5074605;28;20255;-75
2022/10/20 02:00:12;;;;;;;0.80;0.80;;;8.10;99.90;;;;;;5073626;28;20178;-76
2022/10/20 02:03:15;;;;;;;0.60;0.60;;;8.20;99.90;;;;;;5074180;28;20171;-76
2022/10/20 02:06:13;;;;;;;0.70;0.70;;;8.00;99.90;;;;;;5074063;28;20227;-77
2022/10/20 02:08:48;;;;;;;0.70;0.70;;;8.00;99.90;;;;;;5073947;28;20188;-75
2022/10/20 02:11:26;;;;;;;0.60;0.60;;;8.00;99.90;;;;;;5073106;28;20288;-76
2022/10/20 02:13:54;;;;;;;0.70;0.70;;;8.00;99.90;;;;;;5074098;28;20178;-77
2022/10/20 02:16:31;;;;;;;0.60;0.60;;;8.00;99.90;;;;;;5074067;28;20266;-77
2022/10/20 02:18:57;;;;;;;0.70;0.70;;;8.40;99.90;;;;;;5074096;28;20235;-77
2022/10/20 02:21:23;;;;;;;0.60;0.60;;;8.00;99.90;;;;;;5073169;28;20273;-77
2022/10/20 02:23:51;;;;;;;0.60;0.60;;;8.00;99.90;;;;;;5073329;28;20191;-76
2022/10/20 02:26:20;;;;;;;0.60;0.60;;;8.00;99.90;;;;;;5073534;28;20267;-76
2022/10/20 02:28:57;;;;;;;0.60;0.60;;;8.00;99.90;;;;;;5073642;28;20542;-76
2022/10/20 02:31:23;;;;;;;0.70;0.70;;;7.50;99.90;;;;;;5072619;28;20194;-76
2022/10/20 02:33:50;;;;;;;0.60;0.60;;;8.00;99.90;;;;;;5073345;28;20293;-76
2022/10/20 02:36:19;;;;;;;0.70;0.70;;;7.90;99.90;;;;;;5073296;28;20198;-76
2022/10/20 02:38:44;;;;;;;0.70;0.70;;;7.90;99.90;;;;;;5073349;28;20174;-76
2022/10/20 02:41:10;;;;;;;0.60;0.60;;;7.80;99.90;;;;;;5072755;28;20700;-76
2022/10/20 02:43:35;;;;;;;0.60;0.60;;;7.90;99.90;;;;;;5073156;28;20197;-76
2022/10/20 02:46:01;;;;;;;0.70;0.70;;;7.90;99.90;;;;;;5073240;28;20214;-76
2022/10/20 02:48:26;;;;;;;0.70;0.70;;;7.90;99.90;;;;;;5073097;28;20182;-76
2022/10/20 02:50:52;;;;;;;0.70;0.70;;;7.90;99.90;;;;;;5072414;28;20293;-76
2022/10/20 02:53:18;;;;;;;0.80;0.80;;;7.90;99.90;;;;;;5072889;28;20179;-76
2022/10/20 02:55:43;;;;;;;0.70;0.70;;;7.90;99.90;;;;;;5073139;28;20175;-76
2022/10/20 02:58:09;;;;;;;0.70;0.70;;;8.00;99.90;;;;;;5073034;28;20585;-76
2022/10/20 03:00:34;;;;;;;0.73;0.73;;;7.90;99.90;;;;;;5072357;28;20636;-76
2022/10/20 03:03:00;;;;;;;0.60;0.60;;;7.90;99.90;;;;;;5072940;28;20315;-76
2022/10/20 03:05:28;;;;;;;0.70;0.70;;;7.80;99.90;;;;;;5072572;28;20206;-76
2022/10/20 03:07:54;;;;;;;0.60;0.60;;;7.90;99.90;;;;;;5072925;28;20236;-77
2022/10/20 03:10:20;;;;;;;0.60;0.60;;;7.90;99.90;;;;;;5071992;28;20198;-76
2022/10/20 03:12:45;;;;;;;0.60;0.60;;;7.90;99.90;;;;;;5072817;28;20209;-76
2022/10/20 03:15:11;;;;;;;0.60;0.60;;;7.90;99.90;;;;;;5072645;28;20214;-77
2022/10/20 03:17:37;;;;;;;0.60;0.60;;;7.90;99.90;;;;;;5072466;28;20186;-76
2022/10/20 03:20:04;;;;;;;0.63;0.63;;;7.90;99.90;;;;;;5071829;28;20621;-75
2022/10/20 03:22:30;;;;;;;0.70;0.70;;;7.90;99.90;;;;;;5072457;28;20224;-76
2022/10/20 03:24:55;;;;;;;0.50;0.50;;;7.90;99.90;;;;;;5072668;28;20198;-76
2022/10/20 03:27:21;;;;;;;0.60;0.60;;;7.90;99.90;;;;;;5072691;28;20281;-76
2022/10/20 03:29:46;;;;;;;0.70;0.70;;;7.90;99.90;;;;;;5071786;28;20216;-76
2022/10/20 03:32:12;;;;;;;0.60;0.60;;;7.80;99.90;;;;;;5072201;28;20188;-76
2022/10/20 03:34:37;;;;;;;0.60;0.60;;;7.70;99.90;;;;;;5072005;28;20174;-76
2022/10/20 03:37:03;;;;;;;0.60;0.60;;;7.70;99.90;;;;;;5072608;28;20185;-76
2022/10/20 03:39:28;;;;;;;0.70;0.70;;;7.70;99.90;;;;;;5071857;28;20182;-76
2022/10/20 03:41:56;;;;;;;0.60;0.60;;;7.70;99.90;;;;;;5071940;28;20289;-76
2022/10/20 03:44:22;;;;;;;0.60;0.60;;;7.70;99.90;;;;;;5054293;28;20198;-76
2022/10/20 03:46:47;;;;;;;0.70;0.70;;;7.80;99.90;;;;;;5071940;28;20678;-76
2022/10/20 03:49:13;;;;;;;0.67;0.67;;;7.80;99.90;;;;;;5071928;28;20258;-76
2022/10/20 03:51:39;;;;;;;0.70;0.70;;;7.80;99.90;;;;;;5071566;28;20194;-76
2022/10/20 03:54:04;;;;;;;0.80;0.80;;;7.90;99.90;;;;;;5071953;28;20170;-76
2022/10/20 03:56:30;;;;;;;0.70;0.70;;;7.90;99.90;;;;;;5071720;28;20185;-76
2022/10/20 03:58:55;;;;;;;0.70;0.70;;;7.90;99.90;;;;;;5071842;28;20174;-77
2022/10/20 04:01:27;;;;;;;0.80;0.80;;;7.90;99.90;;;;;;5071338;28;20190;-76
2022/10/20 04:03:53;;;;;;;0.70;0.70;;;7.90;99.90;;;;;;5071957;28;20187;-76
2022/10/20 04:06:18;;;;;;;0.70;0.70;;;7.90;99.90;;;;;;5071888;28;20222;-76
2022/10/20 04:08:44;;;;;;;0.70;0.70;;;8.00;99.90;;;;;;5071846;28;20178;-76
2022/10/20 04:11:09;;;;;;;0.70;0.70;;;8.00;99.90;;;;;;5071243;28;20264;-76
2022/10/20 04:13:35;;;;;;;0.60;0.60;;;8.00;99.90;;;;;;5071625;28;20549;-76
2022/10/20 04:16:00;;;;;;;0.70;0.70;;;8.00;99.90;;;;;;5072459;28;20182;-77
2022/10/20 04:18:26;;;;;;;0.60;0.60;;;8.10;99.90;;;;;;5071604;28;20655;-76
2022/10/20 04:20:51;;;;;;;0.70;0.70;;;8.10;99.90;;;;;;5070915;28;20198;-76
2022/10/20 04:23:17;;;;;;;0.70;0.70;;;8.20;99.90;;;;;;5072469;28;20201;-76
2022/10/20 04:25:47;;;;;;;0.60;0.60;;;8.20;99.90;;;;;;5073332;28;20296;-76
2022/10/20 04:28:14;;;;;;;0.63;0.63;;;8.30;99.90;;;;;;5073966;28;20181;-76
2022/10/20 04:30:41;;;;;;;0.70;0.70;;;8.30;99.90;;;;;;5072838;28;20191;-75
2022/10/20 04:33:07;;;;;;;0.70;0.70;;;8.20;99.90;;;;;;5072999;28;20262;-76
2022/10/20 04:35:32;;;;;;;0.60;0.60;;;8.20;99.90;;;;;;5073379;28;20202;-76
2022/10/20 04:37:58;;;;;;;0.70;0.70;;;8.20;99.90;;;;;;5071248;28;20185;-75
2022/10/20 04:40:23;;;;;;;0.70;0.70;;;8.20;99.90;;;;;;5070734;28;20190;-76
2022/10/20 04:42:49;;;;;;;0.70;0.70;;;8.10;99.90;;;;;;5071278;28;20186;-76
2022/10/20 04:45:15;;;;;;;0.60;0.60;;;8.10;99.90;;;;;;5071328;28;20300;-76
2022/10/20 04:47:41;;;;;;;0.67;0.67;;;8.10;99.90;;;;;;5071208;28;20243;-76
2022/10/20 04:50:07;;;;;;;0.80;0.80;;;8.10;99.90;;;;;;5070900;28;20194;-76
2022/10/20 04:52:33;;;;;;;0.80;0.80;;;8.10;99.90;;;;;;5071354;28;20205;-76
2022/10/20 04:54:58;;;;;;;0.60;0.60;;;8.10;99.90;;;;;;5071255;28;20174;-76
2022/10/20 04:57:24;;;;;;;0.60;0.60;;;8.20;99.90;;;;;;5071177;28;20197;-77
2022/10/20 04:59:49;;;;;;;0.70;0.70;;;7.80;99.90;;;;;;5070646;28;20673;-76
2022/10/20 05:02:15;;;;;;;0.60;0.60;;;8.30;99.90;;;;;;5071068;28;20253;-76
2022/10/20 05:04:40;;;;;;;0.60;0.60;;;8.30;99.90;;;;;;5071190;28;20182;-76
2022/10/20 05:07:06;;;;;;;0.70;0.70;;;8.10;99.90;;;;;;5072254;28;20527;-76
2022/10/20 05:09:31;;;;;;;0.70;0.70;;;8.20;99.90;;;;;;5074521;28;20605;-76
2022/10/20 05:11:58;;;;;;;0.60;0.60;;;8.30;99.90;;;;;;5074786;28;20212;-75
2022/10/20 05:14:23;;;;;;;0.70;0.70;;;8.40;99.90;;;;;;5074717;28;20218;-75
2022/10/20 05:16:49;;;;;;;0.70;0.70;;;8.50;99.90;;;;;;5074542;28;20213;-76
2022/10/20 05:19:15;;;;;;;0.70;0.70;;;8.50;99.90;;;;;;5074918;28;20181;-76
2022/10/20 05:21:40;;;;;;;0.70;0.70;;;8.40;99.90;;;;;;5074155;28;20233;-76
2022/10/20 05:24:06;;;;;;;0.70;0.70;;;8.40;99.90;;;;;;5074690;28;20244;-76
2022/10/20 05:26:35;;;;;;;0.70;0.70;;;8.40;99.90;;;;;;5074714;28;20217;-77
2022/10/20 05:29:04;;;;;;;0.70;0.70;;;8.30;99.90;;;;;;5074626;28;20174;-77
2022/10/20 05:31:30;;;;;;;0.80;0.80;;;8.20;99.90;;;;;;5074001;28;20709;-76
2022/10/20 05:33:56;;;;;;;0.80;0.80;;;8.20;99.90;;;;;;5074689;28;20269;-77
2022/10/20 05:36:25;;;;;;;0.70;0.70;;;8.30;99.90;;;;;;5076033;28;20202;-76
2022/10/20 05:38:52;;;;;;;0.70;0.70;;;8.30;99.90;;;;;;5075238;28;20206;-76
2022/10/20 05:41:20;;;;;;;0.63;0.63;;;8.40;99.90;;;;;;5074012;28;20195;-76
2022/10/20 05:43:56;;;;;;;0.70;0.70;;;8.60;99.90;;;;;;5074375;28;20183;-75
2022/10/20 05:46:22;;;;;;;0.63;0.63;;;8.80;99.90;;;;;;5074567;28;20265;-76
2022/10/20 05:48:51;;;;;;;0.60;0.60;;;9.10;99.90;;;;;;5074491;28;20186;-77
2022/10/20 05:51:20;;;;;;;0.60;0.60;;;8.70;99.90;;;;;;5073646;28;20202;-76
2022/10/20 05:53:46;;;;;;;0.70;0.70;;;8.70;99.90;;;;;;5074180;28;20182;-77
2022/10/20 05:56:14;;;;;;;0.60;0.60;;;8.60;99.90;;;;;;5074092;28;20182;-77
2022/10/20 05:58:40;;;;;;;0.50;0.50;;;8.60;99.90;;;;;;5075174;28;20170;-76
2022/10/20 06:01:16;;;;;;;0.77;0.77;;;8.70;99.90;;;;;;5074821;28;20194;-76
2022/10/20 06:03:42;;;;;;;0.70;0.70;;;8.80;99.90;;;;;;5075316;28;20178;-75
2022/10/20 06:06:07;;;;;;;0.60;0.60;;;8.80;99.90;;;;;;5070489;28;20218;-75
2022/10/20 06:08:33;;;;;;;0.60;0.60;;;8.80;99.90;;;;;;5068140;28;20178;-76
2022/10/20 06:11:08;;;;;;;0.70;0.70;;;8.90;99.90;;;;;;5073187;28;20270;-77
2022/10/20 06:13:33;;;;;;;0.60;0.60;;;8.90;99.90;;;;;;5074178;28;20184;-76
2022/10/20 06:16:14;;;;;;;0.60;0.60;;;8.90;99.90;;;;;;5073885;28;20265;-77
2022/10/20 06:18:42;;;;;;;0.53;0.53;;;8.80;99.90;;;;;;5073315;28;20228;-76
2022/10/20 06:21:13;;;;;;;0.60;0.60;;;8.80;99.90;;;;;;5073672;28;20202;-78
2022/10/20 06:23:39;;;;;;;0.67;0.67;;;9.00;99.90;;;;;;5079054;28;20190;-78
2022/10/20 06:26:11;;;;;;;0.60;0.60;;;9.20;99.90;;;;;;5075452;28;20580;-76
2022/10/20 06:28:38;;;;;;;0.73;0.73;;;9.30;99.90;;;;;;5073530;28;20556;-75
2022/10/20 06:31:16;;;;;;;0.70;0.70;;;9.30;99.90;;;;;;5072701;28;20195;-76
2022/10/20 06:33:42;;;;;;;0.50;0.50;;;9.20;99.90;;;;;;5070017;28;20171;-75
2022/10/20 06:36:09;;;;;;;0.60;0.60;;;9.20;99.90;;;;;;5073146;28;20210;-75
2022/10/20 06:38:35;;;;;;;0.60;0.60;;;9.30;99.90;;;;;;5073275;28;20181;-75
2022/10/20 06:41:02;;;;;;;0.50;0.50;;;9.30;99.90;;;;;;5068461;28;20198;-75
2022/10/20 06:43:27;;;;;;;0.50;0.50;;;9.40;99.90;;;;;;5073049;28;20159;-75
2022/10/20 06:45:57;;;;;;;0.57;0.57;;;9.50;99.90;;;;;;5072914;28;20274;-75
2022/10/20 06:48:23;;;;;;;0.53;0.53;;;9.60;99.90;;;;;;5072708;28;20170;-75
2022/10/20 06:50:54;;;;;;;0.60;0.60;;;9.70;99.90;;;;;;5072584;28;20281;-76
2022/10/20 06:53:19;;;;;;;0.60;0.60;;;9.60;99.90;;;;;;5073175;28;20170;-75
2022/10/20 06:55:57;;;;;;;0.60;0.60;;;9.80;99.90;;;;;;5073163;28;20178;-76
2022/10/20 06:58:24;;;;;;;0.67;0.67;;;10.10;99.90;;;;;;5071951;28;20185;-76
2022/10/20 07:01:00;;;;;;;0.60;0.60;;;10.50;99.90;;;;;;5071591;28;20205;-76
2022/10/20 07:03:27;;;;;;;0.50;0.50;;;11.00;99.90;;;;;;5070076;28;20166;-76
2022/10/20 07:05:53;;;;;;;0.50;0.50;;;11.50;99.90;;;;;;5072420;28;20206;-76
2022/10/20 07:08:18;;;;;;;0.50;0.50;;;11.70;99.90;;;;;;5072418;28;20181;-76
2022/10/20 07:10:44;;;;;;;0.40;0.40;;;11.80;99.90;;;;;;5072007;28;20671;-76
2022/10/20 07:13:09;;;;;;;0.60;0.60;;;11.70;99.90;;;;;;5072800;28;20170;-76
2022/10/20 07:15:35;;;;;;;0.43;0.43;;;11.80;99.90;;;;;;5072889;28;20177;-77
2022/10/20 07:18:00;;;;;;;0.40;0.40;;;11.90;99.90;;;;;;5072676;28;20166;-77
2022/10/20 07:20:26;;;;;;;0.50;0.50;;;11.80;99.90;;;;;;5071929;28;20194;-77
2022/10/20 07:22:51;;;;;;;0.33;0.33;;;12.00;99.90;;;;;;5072255;28;20589;-76
2022/10/20 07:25:20;;;;;;;0.50;0.50;;;12.50;99.90;;;;;;5068573;28;20210;-76
2022/10/20 07:27:46;;;;;;;0.60;0.60;;;12.50;99.90;;;;;;5052243;28;20585;-76
2022/10/20 07:30:12;;;;;;;0.50;0.50;;;12.40;99.90;;;;;;5050799;28;20192;-76
2022/10/20 07:32:38;;;;;;;0.50;0.50;;;12.30;99.90;;;;;;5060374;28;20174;-77
2022/10/20 07:35:03;;;;;;;0.57;0.57;;;12.30;99.90;;;;;;5071854;28;20206;-77
2022/10/20 07:37:29;;;;;;;0.50;0.50;;;12.80;99.90;;;;;;5069513;28;20174;-77
2022/10/20 07:39:55;;;;;;;0.50;0.50;;;12.90;99.90;;;;;;5065850;28;20175;-76
2022/10/20 07:42:20;;;;;;;0.50;0.50;;;13.40;99.90;;;;;;5061092;28;20183;-76
2022/10/20 07:44:46;;;;;;;0.50;0.50;;;13.90;99.90;;;;;;5051837;28;20180;-76
2022/10/20 07:47:11;;;;;;;0.50;0.50;;;14.60;1.00;;;;;;5052137;28;20179;-76
2022/10/20 07:49:37;;;;;;;0.40;0.40;;;14.60;1.00;;;;;;5051250;28;20660;-76
2022/10/20 07:52:02;;;;;;;0.37;0.37;;;15.10;1.00;;;;;;5051873;28;20667;-77
2022/10/20 07:54:28;;;;;;;0.40;0.40;;;15.40;1.00;;;;;;5051659;28;20244;-76
2022/10/20 07:56:54;;;;;;;0.40;0.40;;;16.00;1.00;;;;;;5054521;28;20185;-76
2022/10/20 07:59:19;;;;;;;0.30;0.30;;;16.60;1.00;;;;;;5056499;28;20202;-76
2022/10/20 08:01:45;;;;;;;0.40;0.40;;;16.70;1.00;;;;;;5056792;28;20191;-76
2022/10/20 08:04:10;;;;;;;0.50;0.50;;;16.70;1.00;;;;;;5038865;28;20183;-76
2022/10/20 08:06:36;;;;;;;0.30;0.30;;;17.10;99.90;;;;;;5066160;28;20717;-77
2022/10/20 08:09:02;;;;;;;0.50;0.50;;;17.20;1.00;;;;;;5071946;28;20167;-76
2022/10/20 08:11:28;;;;;;;0.50;0.50;;;16.60;1.00;;;;;;5070967;28;20194;-76
2022/10/20 08:13:53;;;;;;;0.40;0.40;;;16.60;99.90;;;;;;5070786;28;20179;-76
2022/10/20 08:16:20;;;;;;;0.50;0.50;;;16.30;1.00;;;;;;5071204;28;20163;-76
2022/10/20 08:18:46;;;;;;;0.37;0.37;;;16.50;1.00;;;;;;5071271;28;20178;-77
2022/10/20 08:21:14;;;;;;;0.50;0.50;;;16.90;1.00;;;;;;5071407;28;20598;-76
2022/10/20 08:23:44;;;;;;;0.50;0.50;;;17.30;99.90;;;;;;5071468;28;20546;-77
2022/10/20 08:26:11;;;;;;;0.50;0.50;;;17.40;1.00;;;;;;5070844;28;20507;-75
2022/10/20 08:28:37;;;;;;;0.47;0.47;;;17.60;99.90;;;;;;5071386;28;20189;-77
2022/10/20 08:31:06;;;;;;;0.50;0.50;;;17.80;99.90;;;;;;5073399;28;20588;-77
2022/10/20 08:33:33;;;;;;;0.30;0.30;;;17.80;1.00;;;;;;5074154;28;20170;-79
2022/10/20 08:36:04;;;;;;;0.40;0.40;;;17.80;1.00;;;;;;5074358;28;20599;-78
2022/10/20 08:38:30;;;;;;;0.40;0.40;;;18.10;1.00;;;;;;5074284;28;20182;-78
2022/10/20 08:40:56;;;;;;;0.50;0.50;;;18.20;1.00;;;;;;5059325;28;20198;-76
2022/10/20 08:43:22;;;;;;;0.50;0.50;;;17.70;1.00;;;;;;5065512;28;20171;-76
2022/10/20 08:45:48;;;;;;;0.60;0.60;;;18.00;1.00;;;;;;5063388;28;20301;-75
2022/10/20 08:48:20;;;;;;;0.40;0.40;;;18.40;99.90;;;;;;5055318;28;20174;-76
2022/10/20 08:50:48;;;;;;;0.40;0.40;;;18.60;1.00;;;;;;5054961;28;20194;-77
2022/10/20 08:53:16;;;;;;;0.40;0.40;;;18.70;99.90;;;;;;5055650;28;20171;-76
2022/10/20 08:55:43;;;;;;;0.50;0.50;;;18.20;1.00;;;;;;5072443;28;20181;-77
2022/10/20 08:58:14;;;;;;;0.40;0.40;;;18.90;1.00;;;;;;5075996;28;20725;-78
2022/10/20 09:00:41;;;;;;;0.40;0.40;;;19.10;1.00;;;;;;5074690;28;20560;-75
2022/10/20 09:03:31;;;;;;;0.47;0.47;;;18.30;99.90;;;;;;5074711;28;20271;-76
2022/10/20 09:06:13;;;;;;;0.57;0.57;;;18.20;99.90;;;;;;5060415;28;20213;-77
2022/10/20 09:08:40;;;;;;;0.50;0.50;;;18.60;75.50;;;;;;5075247;28;20530;-76
2022/10/20 09:11:10;;;;;;;0.53;0.53;;;18.60;1.00;;;;;;5074403;28;20194;-75
2022/10/20 09:13:36;;;;;;;0.40;0.40;;;19.10;1.00;;;;;;5074883;28;20166;-76
2022/10/20 09:16:11;;;;;;;0.57;0.57;;;19.40;1.00;;;;;;5074715;28;20678;-76
2022/10/20 09:18:37;;;;;;;0.40;0.40;;;19.30;1.00;;;;;;5074792;28;20173;-75
2022/10/20 09:21:13;;;;;;;0.40;0.40;;;19.60;99.90;;;;;;5067489;28;20208;-76
2022/10/20 09:23:41;;;;;;;0.50;0.50;;;19.40;1.00;;;;;;5074052;28;20229;-77
2022/10/20 09:26:14;;;;;;;0.50;0.50;;;19.10;1.00;;;;;;5074155;28;20764;-76
2022/10/20 09:28:39;;;;;;;0.40;0.40;;;18.60;7.20;;;;;;5074583;28;20170;-76
2022/10/20 09:31:29;;;;;;;0.40;0.40;;;18.60;1.00;;;;;;5073714;28;20683;-76
2022/10/20 09:33:55;;;;;;;0.50;0.50;;;18.30;1.00;;;;;;5062794;28;20229;-76
2022/10/20 09:36:22;;;;;;;0.50;0.50;;;18.30;1.00;;;;;;5062619;28;20171;-76
2022/10/20 09:38:50;;;;;;;0.50;0.50;;;18.20;51.60;;;;;;5065223;28;20178;-75
2022/10/20 09:41:23;;;;;;;0.50;0.50;;;17.50;1.00;;;;;;5073419;28;20195;-75
2022/10/20 09:43:56;;;;;;;0.37;0.37;;;17.90;1.00;;;;;;5070875;28;20210;-76
2022/10/20 09:46:28;;;;;;;0.50;0.50;;;17.60;99.90;;;;;;5060090;28;20297;-76
2022/10/20 09:48:55;;;;;;;0.40;0.40;;;17.30;1.00;;;;;;5073984;28;20177;-76
2022/10/20 09:51:23;;;;;;;0.40;0.40;;;16.90;99.90;;;;;;5073714;28;20278;-76
2022/10/20 09:54:05;;;;;;;0.40;0.40;;;16.90;99.90;;;;;;5073083;28;20906;-76
2022/10/20 09:56:32;;;;;;;0.40;0.40;;;16.90;99.90;;;;;;5073334;28;20174;-76
2022/10/20 09:59:00;;;;;;;0.40;0.40;;;16.80;99.90;;;;;;5073709;28;20184;-76
2022/10/20 10:01:26;;;;;;;0.40;0.40;;;16.70;1.00;;;;;;5073338;28;20237;-76
2022/10/20 10:04:00;;;;;;;0.37;0.37;;;16.70;1.00;;;;;;5073754;28;20178;-76
2022/10/20 10:06:47;;;;;;;0.30;0.30;;;16.70;1.00;;;;;;5073591;28;20559;-76
2022/10/20 10:09:33;;;;;;;0.40;0.40;;;16.50;1.00;;;;;;5073800;28;20266;-77
2022/10/20 10:12:05;;;;;;;0.30;0.30;;;16.50;1.00;;;;;;5073846;28;20198;-76
2022/10/20 10:14:34;;;;;;;0.30;0.30;;;16.50;1.00;;;;;;5073758;28;20171;-75
2022/10/20 10:17:00;;;;;;;0.40;0.40;;;16.50;1.00;;;;;;5073596;28;20658;-75
2022/10/20 10:19:29;;;;;;;0.40;0.40;;;16.60;1.00;;;;;;5073268;28;20528;-76
2022/10/20 10:21:57;;;;;;;0.40;0.40;;;16.60;1.00;;;;;;5073485;28;20675;-76
2022/10/20 10:24:35;;;;;;;0.40;0.40;;;16.40;1.00;;;;;;5073064;28;20209;-76
2022/10/20 10:27:01;;;;;;;0.30;0.30;;;16.30;1.00;;;;;;5073420;28;20214;-77
2022/10/20 10:29:33;;;;;;;0.40;0.40;;;16.60;1.00;;;;;;5072929;28;20178;-76
2022/10/20 10:32:11;;;;;;;0.40;0.40;;;16.60;1.00;;;;;;5073490;28;20194;-76
2022/10/20 10:34:53;;;;;;;0.40;0.40;;;16.70;1.00;;;;;;5074144;28;20312;-77
2022/10/20 10:37:19;;;;;;;0.40;0.40;;;16.80;1.00;;;;;;5074258;28;20170;-77
2022/10/20 10:39:45;;;;;;;0.40;0.40;;;16.60;1.00;;;;;;5073015;28;20173;-76
2022/10/20 10:42:31;;;;;;;0.40;0.40;;;16.60;1.00;;;;;;5073721;28;20655;-76
2022/10/20 10:45:06;;;;;;;0.30;0.30;;;16.70;1.00;;;;;;5073420;28;20189;-76
2022/10/20 10:47:49;;;;;;;0.40;0.40;;;16.70;1.00;;;;;;5073738;28;20203;-76
2022/10/20 10:50:29;;;;;;;0.50;0.50;;;16.80;1.00;;;;;;5072425;28;20217;-76
2022/10/20 10:52:55;;;;;;;0.40;0.40;;;17.00;1.00;;;;;;5073871;28;20252;-76
2022/10/20 10:55:31;;;;;;;0.40;0.40;;;16.90;1.00;;;;;;5073113;28;20596;-75
2022/10/20 10:58:27;;;;;;;0.33;0.33;;;16.90;1.00;;;;;;5073430;28;20186;-76
2022/10/20 11:01:15;;;;;;;0.50;0.50;;;16.90;1.00;;;;;;5069050;28;20202;-76
2022/10/20 11:04:06;;;;;;;0.30;0.30;;;16.60;1.00;;;;;;5072823;28;20181;-76
2022/10/20 11:06:51;;;;;;;0.40;0.40;;;16.50;1.00;;;;;;5072351;28;20210;-76
2022/10/20 11:09:41;;;;;;;0.40;0.40;;;16.50;1.00;;;;;;5057913;28;20604;-76
2022/10/20 11:12:15;;;;;;;0.40;0.40;;;16.50;1.00;;;;;;5072430;28;20702;-76
2022/10/20 11:15:20;;;;;;;0.40;0.40;;;16.40;1.00;;;;;;5074195;28;20163;-77
2022/10/20 11:18:02;;;;;;;0.50;0.50;;;16.50;1.00;;;;;;5073732;28;20174;-77
2022/10/20 11:20:48;;;;;;;0.40;0.40;;;16.50;1.00;;;;;;5072841;28;20230;-76
2022/10/20 11:23:35;;;;;;;0.33;0.33;;;16.50;1.00;;;;;;5073392;28;20205;-76
2022/10/20 11:26:20;;;;;;;0.40;0.40;;;16.50;1.00;;;;;;5075167;28;20214;-78
2022/10/20 11:28:49;;;;;;;0.40;0.40;;;16.40;1.00;;;;;;5073936;28;20177;-77
2022/10/20 11:31:22;;;;;;;0.50;0.50;;;16.70;1.00;;;;;;5073597;28;20281;-77
2022/10/20 11:33:55;;;;;;;0.40;0.40;;;16.80;1.00;;;;;;5073410;28;20182;-78
2022/10/20 11:36:24;;;;;;;0.40;0.40;;;17.00;1.00;;;;;;5073561;28;20182;-77
2022/10/20 11:38:54;;;;;;;0.50;0.50;;;17.30;1.00;;;;;;5072569;28;20174;-77
2022/10/20 11:41:39;;;;;;;0.40;0.40;;;17.50;1.00;;;;;;5072221;28;20281;-77
2022/10/20 11:44:14;;;;;;;0.50;0.50;;;17.50;1.00;;;;;;5069758;28;20185;-78
2022/10/20 11:46:50;;;;;;;0.40;0.40;;;17.50;1.00;;;;;;5072755;28;20198;-77
2022/10/20 11:49:17;;;;;;;0.40;0.40;;;17.40;1.00;;;;;;5072984;28;20173;-77
2022/10/20 11:52:14;;;;;;;0.40;0.40;;;17.20;1.00;;;;;;5073001;28;20186;-80
2022/10/20 11:55:02;;;;;;;0.43;0.43;;;17.30;1.00;;;;;;5073425;28;20166;-77
2022/10/20 11:57:33;;;;;;;0.40;0.40;;;17.30;1.00;;;;;;5073490;28;20203;-77
2022/10/20 12:00:17;;;;;;;0.50;0.50;;;17.30;1.00;;;;;;5072409;28;20179;-76
2022/10/20 12:03:10;;;;;;;0.50;0.50;;;17.30;1.00;;;;;;5071865;28;20174;-77
2022/10/20 12:06:09;;;;;;;0.40;0.40;;;17.20;1.00;;;;;;5072695;28;20214;-76
2022/10/20 12:08:46;;;;;;;0.40;0.40;;;17.00;1.00;;;;;;5072320;28;20239;-78
2022/10/20 12:11:24;;;;;;;0.50;0.50;;;16.70;1.00;;;;;;5073828;28;20690;-77
2022/10/20 12:14:02;;;;;;;0.50;0.50;;;16.60;1.00;;;;;;5075536;28;20174;-79
2022/10/20 12:16:53;;;;;;;0.50;0.50;;;16.50;1.00;;;;;;5056861;28;20182;-78
2022/10/20 12:19:29;;;;;;;0.57;0.57;;;16.50;1.00;;;;;;5073346;28;20170;-77
2022/10/20 12:22:12;;;;;;;0.50;0.50;;;16.40;1.00;;;;;;5074329;28;20569;-77
2022/10/20 12:24:42;;;;;;;0.47;0.47;;;16.30;1.00;;;;;;5071276;28;20183;-77
2022/10/20 12:27:07;;;;;;;0.50;0.50;;;16.40;1.00;;;;;;5056385;28;20214;-77
2022/10/20 12:29:32;;;;;;;0.40;0.40;;;16.40;1.00;;;;;;5053699;28;20175;-78
2022/10/20 12:32:20;;;;;;;0.50;0.50;;;16.40;63.40;;;;;;5036248;28;20191;-77
2022/10/20 12:35:09;;;;;;;0.50;0.50;;;16.40;40.60;;;;;;5053814;28;20521;-77
2022/10/20 12:37:35;;;;;;;0.40;0.40;;;16.50;1.00;;;;;;5022637;28;20430;-78
2022/10/20 12:40:07;;;;;;;0.40;0.40;;;16.50;1.00;;;;;;5058727;28;20425;-77
2022/10/20 12:42:36;;;;;;;0.47;0.47;;;16.50;1.00;;;;;;5072816;28;20197;-77
2022/10/20 12:45:30;;;;;;;0.50;0.50;;;16.40;1.00;;;;;;5073728;28;20238;-78
2022/10/20 12:47:58;;;;;;;0.40;0.40;;;16.50;1.00;;;;;;5073987;28;20257;-79
2022/10/20 12:50:37;;;;;;;0.40;0.40;;;16.40;1.00;;;;;;5074360;28;20202;-77
2022/10/20 12:53:23;;;;;;;0.50;0.50;;;16.40;1.00;;;;;;5073016;28;20170;-77
2022/10/20 12:56:07;;;;;;;0.50;0.50;;;16.30;1.00;;;;;;5073061;28;20178;-78
2022/10/20 12:59:14;;;;;;;0.40;0.40;;;16.30;1.00;;;;;;5072305;28;20193;-78
2022/10/20 13:02:18;;;;;;;0.50;0.50;;;16.30;1.00;;;;;;5071017;28;20213;-78
2022/10/20 13:05:01;;;;;;;0.40;0.40;;;16.30;13.10;;;;;;5009888;28;20187;-78
2022/10/20 13:08:17;;;;;;;0.40;0.40;;;16.20;58.60;;;;;;5068748;28;20277;-78
2022/10/20 13:10:42;;;;;;;0.40;0.40;;;16.10;33.50;;;;;;5010374;28;20192;-78
2022/10/20 13:13:48;;;;;;;0.40;0.40;;;16.30;5.60;;;;;;5060947;28;20189;-77
2022/10/20 13:16:19;;;;;;;0.50;0.50;;;16.30;1.00;;;;;;5071883;28;20236;-77